createdAt,value
2022-09-05T03:11:55.092Z,2.65
2022-09-05T03:15:42.672Z,2.90
2022-09-05T03:23:00.365Z,3.00
2022-09-05T03:26:14.169Z,3.00
2022-09-05T03:29:37.708Z,3.00
2022-09-05T03:33:10.263Z,3.20
2022-09-05T03:37:00.139Z,2.90
2022-09-05T05:18:12.191Z,2.97
2022-09-05T05:18:59.625Z,3.20
2022-09-05T05:22:07.565Z,3.22
2022-09-05T05:26:20.381Z,3.03
2022-09-05T06:31:56.482Z,3.10
2022-09-05T06:36:06.095Z,3.67
2022-09-05T06:44:20.181Z,3.40
2022-09-05T07:02:59.949Z,3.40
2022-09-05T07:07:01.138Z,3.60
2022-09-05T07:32:39.847Z,3.42
2022-09-05T07:35:52.706Z,3.58
2022-09-05T07:47:11.089Z,3.60
2022-09-05T07:53:45.002Z,3.47
2022-09-05T07:56:59.387Z,4.00
2022-09-05T07:57:52.306Z,3.47
2022-09-05T08:00:58.228Z,3.30
2022-09-05T08:04:05.638Z,3.63
2022-09-05T08:07:47.325Z,3.10
2022-09-05T08:11:23.491Z,3.30
2022-09-05T08:14:45.364Z,3.70
2022-09-05T08:17:47.536Z,3.42
2022-09-05T08:20:56.866Z,3.38
2022-09-05T08:24:13.552Z,3.42
2022-09-05T08:27:20.466Z,3.53
2022-09-05T08:30:25.910Z,3.40
2022-09-05T08:33:34.806Z,3.40
2022-09-05T08:36:58.909Z,3.78
2022-09-05T08:40:14.220Z,3.67
2022-09-05T08:46:36.267Z,3.65
2022-09-05T08:47:08.597Z,3.60
2022-09-05T08:50:40.710Z,3.70
2022-09-05T08:54:08.966Z,3.83
2022-09-05T08:57:32.398Z,3.72
2022-09-05T09:00:55.709Z,3.53
2022-09-05T09:04:26.714Z,3.55
2022-09-05T09:07:51.118Z,4.25
2022-09-05T09:11:30.940Z,3.60
2022-09-05T09:14:51.932Z,3.97
2022-09-05T09:17:53.997Z,3.85
2022-09-05T09:21:28.821Z,3.42
2022-09-05T09:24:30.456Z,3.92
2022-09-05T09:28:48.150Z,3.70
2022-09-05T09:31:38.113Z,3.80
2022-09-05T09:34:49.235Z,3.97
2022-09-05T09:38:18.577Z,3.47
2022-09-05T09:41:36.803Z,3.63
2022-09-05T09:45:28.860Z,3.53
2022-09-05T09:49:21.671Z,3.50
2022-09-05T09:52:45.730Z,3.67
2022-09-05T09:56:06.966Z,3.30
2022-09-05T09:59:36.566Z,3.72
2022-09-05T10:07:14.902Z,3.78
2022-09-05T10:10:49.405Z,3.05
2022-09-05T10:11:04.052Z,3.30
2022-09-05T10:13:57.984Z,3.45
2022-09-05T10:17:18.326Z,3.63
2022-09-05T10:20:36.039Z,3.35
2022-09-05T10:23:46.803Z,3.60
2022-09-05T10:26:57.633Z,3.70
2022-09-05T10:30:15.782Z,3.42
2022-09-05T10:35:14.385Z,3.60
2022-09-05T10:37:05.338Z,3.70
2022-09-05T10:40:12.773Z,3.40
2022-09-05T10:43:28.689Z,3.78
2022-09-05T10:46:56.164Z,3.92
2022-09-05T10:50:23.418Z,3.53
2022-09-05T10:53:56.157Z,3.30
2022-09-05T10:57:07.631Z,3.40
2022-09-05T11:02:19.843Z,3.50
2022-09-05T11:03:55.708Z,4.10
2022-09-05T11:07:18.009Z,3.67
2022-09-05T11:10:44.182Z,3.88
2022-09-05T11:13:59.956Z,3.58
2022-09-05T11:17:10.616Z,3.40
2022-09-05T11:20:27.649Z,4.00
2022-09-05T11:23:46.711Z,3.50
2022-09-05T11:27:25.243Z,3.40
2022-09-05T11:30:38.704Z,3.58
2022-09-05T11:39:51.198Z,3.17
2022-09-05T11:39:51.297Z,3.70
2022-09-05T11:41:50.963Z,3.35
2022-09-05T11:45:10.769Z,3.20
2022-09-05T11:48:18.490Z,3.70
2022-09-05T11:51:46.490Z,3.50
2022-09-05T11:54:57.307Z,3.40
2022-09-05T11:58:44.923Z,3.83
2022-09-05T12:02:24.264Z,3.50
2022-09-05T12:06:00.115Z,3.10
2022-09-05T12:09:27.207Z,3.30
2022-09-05T12:12:50.574Z,3.30
2022-09-05T12:15:53.475Z,3.75
2022-09-05T12:19:36.803Z,3.28
2022-09-05T12:22:57.730Z,3.20
2022-09-05T12:27:42.120Z,3.08
2022-09-05T12:36:02.039Z,3.05
2022-09-05T12:40:53.800Z,3.33
2022-09-05T12:41:37.580Z,3.08
2022-09-05T12:41:41.893Z,3.33
2022-09-05T12:44:42.345Z,3.03
2022-09-05T12:47:50.487Z,3.28
2022-09-05T12:50:59.305Z,3.15
2022-09-05T12:54:24.407Z,3.00
2022-09-05T13:00:21.475Z,3.22
2022-09-05T13:03:04.348Z,3.20
2022-09-05T13:04:51.208Z,3.03
2022-09-05T13:08:03.129Z,3.30
2022-09-05T13:14:47.215Z,3.00
2022-09-05T13:15:07.894Z,3.33
2022-09-05T13:18:28.599Z,3.13
2022-09-05T13:21:31.533Z,3.72
2022-09-05T13:24:38.567Z,2.90
2022-09-05T13:27:46.609Z,2.95
2022-09-05T13:37:54.020Z,3.00
2022-09-05T13:37:59.371Z,3.15
2022-09-05T13:38:16.290Z,3.20
2022-09-05T13:41:27.353Z,2.80
2022-09-05T13:44:37.602Z,2.90
2022-09-05T13:47:50.446Z,3.08
2022-09-05T13:50:54.958Z,2.95
2022-09-05T13:54:10.807Z,2.78
2022-09-05T13:57:35.959Z,3.03
2022-09-05T14:00:40.490Z,3.35
2022-09-05T14:04:01.413Z,3.10
2022-09-05T14:07:51.264Z,2.72
2022-09-05T14:11:17.663Z,3.03
2022-09-05T14:18:20.671Z,2.80
2022-09-05T14:21:28.569Z,3.08
2022-09-05T14:24:35.965Z,2.72
2022-09-05T14:27:45.086Z,2.97
2022-09-05T14:34:12.242Z,2.97
2022-09-05T14:37:41.745Z,2.63
2022-09-05T14:38:16.157Z,3.00
2022-09-05T14:41:28.551Z,2.75
2022-09-05T14:44:59.001Z,3.00
2022-09-05T14:48:30.446Z,2.92
2022-09-05T14:51:35.182Z,2.80
2022-09-05T15:02:47.707Z,3.00
2022-09-05T15:02:49.443Z,2.85
2022-09-05T15:04:55.289Z,2.90
2022-09-05T15:08:20.305Z,2.90
2022-09-05T15:12:24.271Z,2.72
2022-09-05T15:15:07.357Z,2.80
2022-09-05T15:18:31.794Z,2.90
2022-09-05T15:21:41.109Z,2.67
2022-09-05T15:24:42.799Z,3.10
2022-09-05T15:27:46.448Z,2.90
2022-09-05T15:30:58.087Z,2.60
2022-09-05T15:34:22.383Z,2.80
2022-09-05T15:37:40.766Z,2.70
2022-09-05T15:40:43.310Z,2.78
2022-09-05T15:44:09.468Z,2.80
2022-09-05T15:47:18.174Z,2.85
2022-09-05T15:50:22.054Z,2.95
2022-09-05T15:53:36.440Z,2.70
2022-09-05T15:56:51.794Z,2.75
2022-09-05T15:59:57.435Z,2.90
2022-09-05T16:04:36.423Z,2.78
2022-09-05T16:10:39.110Z,2.90
2022-09-05T16:10:41.690Z,2.60
2022-09-05T16:13:53.295Z,3.30
2022-09-05T16:23:15.297Z,2.70
2022-09-05T16:23:27.195Z,3.05
2022-09-05T16:24:14.478Z,3.10
2022-09-05T16:27:46.031Z,3.15
2022-09-05T16:30:49.225Z,3.05
2022-09-05T16:33:51.737Z,2.97
2022-09-05T16:37:08.282Z,2.80
2022-09-05T16:40:22.830Z,3.20
2022-09-05T16:43:29.518Z,3.17
2022-09-05T16:46:49.391Z,3.00
2022-09-05T16:50:23.941Z,2.95
2022-09-05T16:53:48.165Z,2.90
2022-09-05T16:57:07.537Z,3.03
2022-09-05T17:00:10.370Z,2.67
2022-09-05T17:03:27.252Z,2.90
2022-09-05T17:06:46.013Z,2.88
2022-09-05T17:09:47.724Z,3.50
2022-09-05T17:12:54.353Z,2.97
2022-09-05T17:16:00.406Z,2.65
2022-09-05T17:19:03.015Z,2.72
2022-09-05T17:25:29.569Z,3.30
2022-09-05T17:29:28.741Z,2.75
2022-09-05T17:29:47.363Z,2.88
2022-09-05T17:32:38.723Z,3.55
2022-09-05T17:35:55.651Z,2.75
2022-09-05T17:39:03.505Z,2.80
2022-09-05T17:42:09.116Z,2.70
2022-09-05T17:45:15.671Z,2.97
2022-09-05T17:49:18.498Z,3.10
2022-09-05T17:52:16.652Z,2.83
2022-09-05T17:55:18.606Z,3.10
2022-09-05T17:58:49.410Z,2.85
2022-09-05T18:02:07.787Z,2.65
2022-09-05T18:05:52.276Z,2.85
2022-09-05T18:08:53.957Z,2.80
2022-09-05T18:13:14.143Z,2.80
2022-09-05T18:15:54.928Z,2.90
2022-09-05T18:19:33.396Z,2.80
2022-09-05T18:22:25.346Z,3.08
2022-09-05T18:25:33.574Z,2.80
2022-09-05T18:28:50.187Z,2.88
2022-09-05T18:31:53.261Z,3.10
2022-09-05T18:35:20.269Z,2.70
2022-09-05T18:38:51.969Z,2.60
2022-09-05T18:42:25.953Z,2.80
2022-09-05T18:45:38.034Z,2.80
2022-09-05T18:50:09.892Z,2.90
2022-09-05T18:52:47.438Z,3.10
2022-09-05T18:56:10.699Z,3.17
2022-09-05T18:59:24.118Z,3.20
2022-09-05T19:02:59.007Z,3.42
2022-09-05T19:06:36.144Z,3.13
2022-09-05T19:09:35.633Z,2.80
2022-09-05T19:12:52.479Z,3.00
2022-09-05T19:16:38.166Z,3.50
2022-09-05T19:20:31.306Z,3.50
2022-09-05T19:24:02.673Z,3.40
2022-09-05T19:29:44.484Z,3.45
2022-09-05T19:36:50.137Z,3.25
2022-09-05T19:37:04.778Z,3.53
2022-09-05T19:37:42.650Z,3.40
2022-09-05T19:47:31.468Z,3.40
2022-09-05T19:47:56.039Z,3.30
2022-09-05T19:51:17.917Z,3.78
2022-09-05T19:54:36.181Z,3.65
2022-09-05T19:57:38.156Z,3.60
2022-09-05T20:00:42.128Z,3.63
2022-09-05T20:03:53.192Z,3.55
2022-09-05T20:06:54.956Z,3.75
2022-09-05T20:09:58.712Z,3.70
2022-09-05T20:13:00.789Z,3.47
2022-09-05T20:16:03.069Z,3.63
2022-09-05T20:19:06.740Z,3.72
2022-09-05T20:22:48.088Z,3.53
2022-09-05T20:25:40.758Z,3.70
2022-09-05T20:28:44.494Z,3.85
2022-09-05T20:31:46.487Z,3.40
2022-09-05T20:39:07.049Z,3.85
2022-09-05T20:43:29.307Z,3.97
2022-09-05T20:43:32.442Z,3.80
2022-09-05T20:45:01.330Z,3.60
2022-09-05T20:52:47.482Z,3.72
2022-09-05T20:54:18.865Z,3.70
2022-09-05T20:54:53.330Z,3.70
2022-09-05T20:57:56.088Z,3.60
2022-09-05T21:01:21.333Z,3.65
2022-09-05T21:04:38.450Z,4.05
2022-09-05T21:07:40.569Z,3.47
2022-09-05T21:10:56.507Z,3.70
2022-09-05T21:14:03.453Z,3.67
2022-09-05T21:17:14.947Z,3.90
2022-09-05T21:20:21.801Z,3.80
2022-09-05T21:23:35.367Z,3.45
2022-09-05T21:26:37.755Z,3.85
2022-09-05T21:29:39.738Z,4.07
2022-09-05T21:32:43.919Z,4.10
2022-09-05T21:35:56.200Z,4.22
2022-09-05T21:38:57.904Z,4.32
2022-09-05T21:42:16.978Z,4.22
2022-09-05T21:47:39.458Z,4.45
2022-09-05T21:48:43.358Z,4.00
2022-09-05T21:51:51.923Z,3.85
2022-09-05T21:58:44.266Z,3.65
2022-09-05T21:59:29.145Z,3.50
2022-09-05T22:01:52.282Z,3.60
2022-09-05T22:05:03.314Z,3.78
2022-09-05T22:08:06.172Z,3.90
2022-09-05T22:11:09.598Z,4.00
2022-09-05T22:14:11.269Z,4.43
2022-09-05T22:17:14.164Z,3.90
2022-09-05T22:20:21.066Z,4.30
2022-09-05T22:23:22.936Z,4.25
2022-09-05T22:26:24.950Z,5.00
2022-09-05T22:29:27.659Z,4.30
2022-09-05T22:32:34.669Z,4.53
2022-09-05T22:35:39.242Z,4.22
2022-09-05T22:38:44.023Z,4.68
2022-09-05T22:42:10.756Z,4.80
2022-09-05T22:45:12.722Z,4.90
2022-09-05T22:48:14.806Z,4.88
2022-09-05T22:51:17.864Z,4.60
2022-09-05T22:54:19.525Z,4.80
2022-09-05T22:57:23.357Z,4.45
2022-09-05T23:00:25.075Z,4.78
2022-09-05T23:03:26.766Z,4.85
2022-09-05T23:06:28.419Z,4.85
2022-09-05T23:09:30.223Z,4.88
2022-09-05T23:12:36.647Z,5.00
2022-09-05T23:18:40.384Z,4.78
2022-09-05T23:21:42.060Z,5.13
2022-09-05T23:24:43.693Z,5.38
2022-09-05T23:27:45.872Z,5.20
2022-09-05T23:30:47.846Z,5.13
2022-09-05T23:33:51.162Z,5.68
2022-09-05T23:36:52.789Z,5.70
2022-09-05T23:39:54.520Z,5.90
2022-09-05T23:42:58.882Z,5.80
2022-09-05T23:46:01.532Z,5.97
2022-09-05T23:49:03.574Z,5.40
2022-09-05T23:52:05.366Z,5.72
2022-09-05T23:55:07.540Z,5.80
2022-09-05T23:58:09.973Z,6.10
